Terminal Aerodrome Forecast
Issued by NWS

Current Version | Previous Version | Text Only | Print | Product List | Glossary On
Versions: 1 2 3 4 5 6 7 8 9 10 11 12 13 14 15 16 17
059
FTPA31 PHFO 092343
TAFHLI
TAF
PHLI 092343Z 1000/1024 12008KT P6SM SCT045
     FM100500 28007KT P6SM SKC
     FM101900 06009KT P6SM SCT040
      AMD NOT SKED=

USA.gov is the U.S. government's official web portal to all federal, state and local government web resources and services.